Time;durP1;ratioP1;P1;durP2;ratioP2;P2;SDS_P1;SDS_P2;PMS_P1;PMS_P2;Temp;Humidity;BMP_temperature;BMP_pressure;BME280_temperature;BME280_humidity;BME280_pressure;Samples;Min_cycle;Max_cycle;Signal;HPM_P1;HPM_P2
2022/08/14 00:01:06;;;;;;;4.70;3.87;;;;;;;;;;2279038;58;21048;-76
2022/08/14 00:03:33;;;;;;;4.10;2.85;;;;;;;;;;2303582;58;21678;-76
2022/08/14 00:06:01;;;;;;;4.30;3.22;;;;;;;;;;2303514;58;21105;-77
2022/08/14 00:08:28;;;;;;;5.62;3.25;;;;;;;;;;2388362;54;21180;-76
2022/08/14 00:10:55;;;;;;;3.72;2.78;;;;;;;;;;2305248;58;21137;-77
2022/08/14 00:13:23;;;;;;;4.03;3.40;;;;;;;;;;2304592;58;21140;-77
2022/08/14 00:15:51;;;;;;;3.95;3.17;;;;;;;;;;2304951;58;21055;-77
2022/08/14 00:18:19;;;;;;;3.78;3.20;;;;;;;;;;2304995;58;21061;-77
2022/08/14 00:20:47;;;;;;;4.53;3.30;;;;;;;;;;2305384;58;21137;-77
2022/08/14 00:23:15;;;;;;;3.65;3.10;;;;;;;;;;2305234;58;21057;-76
2022/08/14 00:25:43;;;;;;;4.65;3.47;;;;;;;;;;2304857;58;21104;-77
2022/08/14 00:28:11;;;;;;;4.22;2.92;;;;;;;;;;2304808;58;21045;-77
2022/08/14 00:30:38;;;;;;;4.43;3.35;;;;;;;;;;2304532;58;21058;-77
2022/08/14 00:33:05;;;;;;;4.47;3.08;;;;;;;;;;2305080;58;21113;-77
2022/08/14 00:35:32;;;;;;;6.72;3.42;;;;;;;;;;2304781;58;21125;-77
2022/08/14 00:37:59;;;;;;;4.78;3.47;;;;;;;;;;2305050;58;21120;-77
2022/08/14 00:40:26;;;;;;;5.07;3.25;;;;;;;;;;2304135;58;21798;-77
2022/08/14 00:42:54;;;;;;;3.58;3.25;;;;;;;;;;2305109;58;21121;-77
2022/08/14 00:45:21;;;;;;;6.10;3.30;;;;;;;;;;2429420;54;21046;-76
2022/08/14 00:47:48;;;;;;;3.20;2.92;;;;;;;;;;2304905;58;21106;-77
2022/08/14 00:50:19;;;;;;;3.62;3.28;;;;;;;;;;2305481;58;21647;-77
2022/08/14 00:52:47;;;;;;;4.12;3.50;;;;;;;;;;2304774;58;21069;-77
2022/08/14 00:55:14;;;;;;;3.92;3.20;;;;;;;;;;2303646;58;21101;-76
2022/08/14 00:57:41;;;;;;;5.18;3.25;;;;;;;;;;2303042;58;21097;-77
2022/08/14 01:00:13;;;;;;;5.93;3.87;;;;;;;;;;2304955;58;21042;-76
2022/08/14 01:02:42;;;;;;;4.10;3.42;;;;;;;;;;2304344;58;21092;-77
2022/08/14 01:05:22;;;;;;;4.55;2.62;;;;;;;;;;2304627;58;21061;-76
2022/08/14 01:07:52;;;;;;;5.37;2.72;;;;;;;;;;2305677;58;21121;-77
2022/08/14 01:10:20;;;;;;;3.87;3.42;;;;;;;;;;2321506;54;21132;-77
2022/08/14 01:12:48;;;;;;;4.85;3.53;;;;;;;;;;2304333;58;21073;-76
2022/08/14 01:15:20;;;;;;;3.65;3.25;;;;;;;;;;2521729;54;21060;-77
2022/08/14 01:23:18;;;;;;;4.32;3.10;;;;;;;;;;2306331;54;21089;-78
2022/08/14 01:25:45;;;;;;;7.35;3.42;;;;;;;;;;2305676;58;21060;-78
2022/08/14 01:28:12;;;;;;;4.10;3.35;;;;;;;;;;2307310;58;21133;-78
2022/08/14 01:30:40;;;;;;;3.65;3.30;;;;;;;;;;2305784;58;21528;-78
2022/08/14 01:33:07;;;;;;;3.28;2.97;;;;;;;;;;2306292;58;21073;-78
2022/08/14 01:35:34;;;;;;;4.62;3.58;;;;;;;;;;2305003;58;21073;-78
2022/08/14 01:38:02;;;;;;;3.72;3.10;;;;;;;;;;2306293;58;21116;-78
2022/08/14 01:40:30;;;;;;;4.22;3.30;;;;;;;;;;2413181;54;21192;-78
2022/08/14 01:42:57;;;;;;;4.10;3.30;;;;;;;;;;2306573;58;21082;-78
2022/08/14 01:45:24;;;;;;;3.83;3.40;;;;;;;;;;2305480;58;21064;-78
2022/08/14 01:47:51;;;;;;;4.10;3.42;;;;;;;;;;2306676;58;21113;-78
2022/08/14 01:50:18;;;;;;;4.55;3.30;;;;;;;;;;2306406;58;21105;-78
2022/08/14 01:52:46;;;;;;;4.00;3.50;;;;;;;;;;2305987;58;21100;-78
2022/08/14 01:55:15;;;;;;;6.78;3.03;;;;;;;;;;2407236;54;21121;-77
2022/08/14 01:57:43;;;;;;;3.40;3.10;;;;;;;;;;2305931;58;21061;-78
2022/08/14 02:00:15;;;;;;;5.32;3.42;;;;;;;;;;2306794;58;21061;-78
2022/08/14 02:02:42;;;;;;;5.32;3.10;;;;;;;;;;2383715;54;21069;-78
2022/08/14 02:05:11;;;;;;;4.25;2.80;;;;;;;;;;2306270;58;21548;-78
2022/08/14 02:07:38;;;;;;;3.95;2.80;;;;;;;;;;2305847;58;21133;-78
2022/08/14 02:10:08;;;;;;;6.62;2.92;;;;;;;;;;2306794;58;21108;-78
2022/08/14 02:12:35;;;;;;;4.15;3.40;;;;;;;;;;2306519;58;21148;-78
2022/08/14 02:15:02;;;;;;;4.68;3.45;;;;;;;;;;2306506;58;21061;-78
2022/08/14 02:17:32;;;;;;;3.70;3.17;;;;;;;;;;2305458;58;21375;-78
2022/08/14 02:19:59;;;;;;;6.57;3.08;;;;;;;;;;2419377;54;21069;-78
2022/08/14 02:22:26;;;;;;;3.42;2.80;;;;;;;;;;2305782;58;21109;-78
2022/08/14 02:24:54;;;;;;;3.35;2.85;;;;;;;;;;2325741;54;21077;-78
2022/08/14 02:27:21;;;;;;;4.55;2.78;;;;;;;;;;2305906;58;21113;-78
2022/08/14 02:29:48;;;;;;;3.72;3.28;;;;;;;;;;2306633;58;21168;-78
2022/08/14 02:32:16;;;;;;;2.62;2.42;;;;;;;;;;2371551;54;21105;-78
2022/08/14 02:34:44;;;;;;;4.53;3.12;;;;;;;;;;2306010;58;21045;-78
2022/08/14 02:37:11;;;;;;;3.80;2.83;;;;;;;;;;2315610;54;21125;-78
2022/08/14 02:39:41;;;;;;;4.97;3.12;;;;;;;;;;2305881;58;21105;-78
2022/08/14 02:42:09;;;;;;;2.90;2.60;;;;;;;;;;2306953;58;21144;-78
2022/08/14 02:44:38;;;;;;;3.45;2.78;;;;;;;;;;2306436;58;21057;-78
2022/08/14 02:47:05;;;;;;;2.70;2.50;;;;;;;;;;2304236;58;21128;-78
2022/08/14 02:49:32;;;;;;;5.72;3.83;;;;;;;;;;2306997;58;21070;-78
2022/08/14 02:51:59;;;;;;;3.95;2.70;;;;;;;;;;2361738;54;21058;-78
2022/08/14 02:54:27;;;;;;;4.65;3.00;;;;;;;;;;2306825;58;21062;-77
2022/08/14 02:56:54;;;;;;;3.40;3.10;;;;;;;;;;2305430;58;21120;-78
2022/08/14 02:59:23;;;;;;;3.10;2.72;;;;;;;;;;2306634;58;21053;-78
2022/08/14 03:01:52;;;;;;;4.32;2.95;;;;;;;;;;2306296;58;21159;-78
2022/08/14 03:04:19;;;;;;;5.00;3.00;;;;;;;;;;2305902;58;21049;-78
2022/08/14 03:06:47;;;;;;;6.43;3.33;;;;;;;;;;2305524;58;21536;-78
2022/08/14 03:09:14;;;;;;;3.00;2.70;;;;;;;;;;2321413;54;21041;-78
2022/08/14 03:11:43;;;;;;;5.57;2.83;;;;;;;;;;2353993;54;21065;-77
2022/08/14 03:14:11;;;;;;;5.50;3.00;;;;;;;;;;2306413;58;21045;-78
2022/08/14 03:16:38;;;;;;;4.07;2.87;;;;;;;;;;2306175;54;21065;-78
2022/08/14 03:19:06;;;;;;;6.55;2.85;;;;;;;;;;2311195;54;21137;-78
2022/08/14 03:21:33;;;;;;;5.20;2.53;;;;;;;;;;2306148;58;21041;-78
2022/08/14 03:24:08;;;;;;;8.88;4.00;;;;;;;;;;2306310;58;21069;-78
2022/08/14 03:26:36;;;;;;;5.07;3.03;;;;;;;;;;2326633;54;21145;-78
2022/08/14 03:29:04;;;;;;;5.20;2.97;;;;;;;;;;2306918;58;21049;-78
2022/08/14 03:31:31;;;;;;;3.45;3.15;;;;;;;;;;2306501;58;21041;-78
2022/08/14 03:33:58;;;;;;;3.15;2.83;;;;;;;;;;2305642;58;21615;-78
2022/08/14 03:36:26;;;;;;;3.97;2.78;;;;;;;;;;2305724;58;21046;-78
2022/08/14 03:38:56;;;;;;;5.45;3.12;;;;;;;;;;2346929;54;21125;-78
2022/08/14 03:41:24;;;;;;;4.15;2.95;;;;;;;;;;2306128;58;21057;-78
2022/08/14 03:43:53;;;;;;;5.12;3.25;;;;;;;;;;2306749;58;21077;-78
2022/08/14 03:46:20;;;;;;;6.12;3.10;;;;;;;;;;2358436;54;21113;-78
2022/08/14 03:48:48;;;;;;;4.10;3.00;;;;;;;;;;2343494;54;21113;-78
2022/08/14 03:51:15;;;;;;;3.62;2.80;;;;;;;;;;2306830;58;21120;-78
2022/08/14 03:53:44;;;;;;;3.08;2.78;;;;;;;;;;2396315;54;21078;-78
2022/08/14 03:56:13;;;;;;;3.60;3.05;;;;;;;;;;2305691;58;21213;-78
2022/08/14 03:58:41;;;;;;;3.37;2.83;;;;;;;;;;2306286;58;21061;-77
2022/08/14 04:01:08;;;;;;;5.72;3.87;;;;;;;;;;2306612;58;21180;-78
2022/08/14 04:03:35;;;;;;;4.12;2.80;;;;;;;;;;2306101;58;21165;-78
2022/08/14 04:06:02;;;;;;;4.53;3.03;;;;;;;;;;2305595;58;21632;-77
2022/08/14 04:08:29;;;;;;;5.05;2.80;;;;;;;;;;2306319;58;21057;-78
2022/08/14 04:10:56;;;;;;;4.60;2.80;;;;;;;;;;2306687;58;21057;-78
2022/08/14 04:13:23;;;;;;;4.50;2.87;;;;;;;;;;2305562;58;21626;-78
2022/08/14 04:15:50;;;;;;;3.62;3.28;;;;;;;;;;2305899;58;21061;-78
2022/08/14 04:18:18;;;;;;;5.15;2.87;;;;;;;;;;2305927;58;21097;-78
2022/08/14 04:20:45;;;;;;;4.65;3.22;;;;;;;;;;2341145;54;21057;-78
2022/08/14 04:23:12;;;;;;;4.85;3.05;;;;;;;;;;2306513;57;21576;-78
2022/08/14 04:25:39;;;;;;;3.40;2.83;;;;;;;;;;2305746;58;21084;-78
2022/08/14 04:28:08;;;;;;;4.18;3.12;;;;;;;;;;2326148;54;21162;-78
2022/08/14 04:30:38;;;;;;;5.07;3.12;;;;;;;;;;2306578;58;21062;-78
2022/08/14 04:33:05;;;;;;;4.57;3.05;;;;;;;;;;2338031;54;21081;-78
2022/08/14 04:35:32;;;;;;;4.37;2.90;;;;;;;;;;2387509;54;21061;-78
2022/08/14 04:43:37;;;;;;;3.30;2.85;;;;;;;;;;2363091;54;21029;-78
2022/08/14 04:46:03;;;;;;;;;;;;;;;;;;2309214;58;21210;-78
2022/08/14 04:48:30;;;;;;;3.70;3.28;;;;;;;;;;2305945;58;20123;-78
2022/08/14 04:50:57;;;;;;;3.37;2.97;;;;;;;;;;2332377;54;21069;-78
2022/08/14 04:53:25;;;;;;;4.90;3.15;;;;;;;;;;2305785;58;21116;-78
2022/08/14 04:55:52;;;;;;;4.72;2.65;;;;;;;;;;2305092;58;21164;-78
2022/08/14 04:58:20;;;;;;;4.97;2.80;;;;;;;;;;2393102;54;21073;-78
2022/08/14 05:00:49;;;;;;;4.28;2.95;;;;;;;;;;2306316;58;21049;-78
2022/08/14 05:03:19;;;;;;;5.82;3.10;;;;;;;;;;2305228;58;21074;-78
2022/08/14 05:05:47;;;;;;;6.47;2.90;;;;;;;;;;2339970;54;21073;-78
2022/08/14 05:08:14;;;;;;;4.07;2.87;;;;;;;;;;2306591;58;21046;-78
2022/08/14 05:13:16;;;;;;;3.90;2.80;;;;;;;;;;2310837;57;38695;-76
2022/08/14 05:15:45;;;;;;;3.22;2.50;;;;;;;;;;2344889;57;21478;-76
2022/08/14 05:18:13;;;;;;;4.30;3.00;;;;;;;;;;2346685;57;21026;-77
2022/08/14 05:20:44;;;;;;;4.95;3.20;;;;;;;;;;2347298;57;21100;-77
2022/08/14 05:23:12;;;;;;;3.55;3.10;;;;;;;;;;2347646;57;21033;-76
2022/08/14 05:25:39;;;;;;;6.07;3.08;;;;;;;;;;2346084;57;21057;-76
2022/08/14 05:28:10;;;;;;;4.25;2.65;;;;;;;;;;2355316;53;21034;-77
2022/08/14 05:30:37;;;;;;;3.55;2.70;;;;;;;;;;2346378;57;21080;-76
2022/08/14 05:33:04;;;;;;;5.60;3.03;;;;;;;;;;2345115;57;21105;-76
2022/08/14 05:35:31;;;;;;;6.43;3.00;;;;;;;;;;2344950;57;21061;-76
2022/08/14 05:37:59;;;;;;;4.87;2.60;;;;;;;;;;2383085;53;21046;-76
2022/08/14 05:40:26;;;;;;;3.83;2.70;;;;;;;;;;2346795;57;21029;-77
2022/08/14 05:42:53;;;;;;;4.07;2.80;;;;;;;;;;2347271;57;21567;-77
2022/08/14 05:45:20;;;;;;;4.72;3.35;;;;;;;;;;2346356;57;21053;-76
2022/08/14 05:47:48;;;;;;;3.58;2.55;;;;;;;;;;2346239;57;21066;-77
2022/08/14 05:50:15;;;;;;;4.53;2.70;;;;;;;;;;2346742;57;21584;-77
2022/08/14 05:52:42;;;;;;;3.95;2.72;;;;;;;;;;2433273;52;21515;-76
2022/08/14 05:55:10;;;;;;;3.50;2.37;;;;;;;;;;2609617;53;21538;-80
2022/08/14 05:57:47;;;;;;;4.43;2.75;;;;;;;;;;2359304;57;21065;-80
2022/08/14 06:00:16;;;;;;;3.30;2.50;;;;;;;;;;2359625;57;21064;-76
2022/08/14 06:02:44;;;;;;;5.37;2.65;;;;;;;;;;2361658;57;21037;-78
2022/08/14 06:05:11;;;;;;;3.72;2.67;;;;;;;;;;2363696;57;21045;-77
2022/08/14 06:07:38;;;;;;;5.12;2.85;;;;;;;;;;2364045;57;21093;-77
2022/08/14 06:10:06;;;;;;;4.62;2.92;;;;;;;;;;2364164;57;21025;-82
2022/08/14 06:12:33;;;;;;;4.32;2.58;;;;;;;;;;2362563;57;21105;-76
2022/08/14 06:15:00;;;;;;;4.45;2.70;;;;;;;;;;2361788;57;21125;-75
2022/08/14 06:17:27;;;;;;;3.97;2.60;;;;;;;;;;2614329;53;21049;-76
2022/08/14 06:19:55;;;;;;;6.20;2.40;;;;;;;;;;2362266;57;21140;-78
2022/08/14 06:22:22;;;;;;;3.78;2.60;;;;;;;;;;2363734;57;21568;-77
2022/08/14 06:24:49;;;;;;;7.32;3.20;;;;;;;;;;2362672;57;21615;-77
2022/08/14 06:27:16;;;;;;;2.62;2.40;;;;;;;;;;2362075;57;21046;-78
2022/08/14 06:29:44;;;;;;;4.00;2.92;;;;;;;;;;2362775;57;21053;-80
2022/08/14 06:32:11;;;;;;;5.10;2.90;;;;;;;;;;2363253;57;21113;-77
2022/08/14 06:34:38;;;;;;;7.53;2.83;;;;;;;;;;2363073;57;21638;-80
2022/08/14 06:37:05;;;;;;;4.65;2.60;;;;;;;;;;2362518;57;21093;-78
2022/08/14 06:39:33;;;;;;;3.40;3.10;;;;;;;;;;2363193;57;21054;-78
2022/08/14 06:42:00;;;;;;;5.97;2.62;;;;;;;;;;2362627;57;21172;-80
2022/08/14 06:44:27;;;;;;;4.05;2.80;;;;;;;;;;2362381;57;21061;-78
2022/08/14 06:46:55;;;;;;;4.75;2.80;;;;;;;;;;2362423;57;21630;-77
2022/08/14 06:49:22;;;;;;;2.60;2.40;;;;;;;;;;2363196;57;21029;-79
2022/08/14 06:51:49;;;;;;;5.37;2.58;;;;;;;;;;2613439;53;21642;-82
2022/08/14 06:54:16;;;;;;;4.90;2.50;;;;;;;;;;2646944;51;21035;-78
2022/08/14 06:56:43;;;;;;;3.03;2.47;;;;;;;;;;2654873;52;21093;-77
2022/08/14 06:59:10;;;;;;;3.75;2.50;;;;;;;;;;2396114;56;21043;-79
2022/08/14 07:07:08;;;;;;;5.90;2.78;;;;;;;;;;2395785;56;20990;-79
2022/08/14 07:09:35;;;;;;;5.45;2.60;;;;;;;;;;2396647;56;21046;-76
2022/08/14 07:12:02;;;;;;;5.78;2.87;;;;;;;;;;2395667;56;21037;-76
2022/08/14 07:14:29;;;;;;;6.32;2.90;;;;;;;;;;2394386;56;21113;-74
2022/08/14 07:16:56;;;;;;;5.75;3.20;;;;;;;;;;2394187;56;21169;-77
2022/08/14 07:19:23;;;;;;;4.30;2.65;;;;;;;;;;2654633;52;21126;-77
2022/08/14 07:21:50;;;;;;;3.95;2.97;;;;;;;;;;2396572;56;21505;-77
2022/08/14 07:24:18;;;;;;;4.90;2.40;;;;;;;;;;2396090;56;21034;-77
2022/08/14 07:26:45;;;;;;;3.53;2.97;;;;;;;;;;2396733;56;21572;-82
2022/08/14 07:29:12;;;;;;;3.40;2.22;;;;;;;;;;2395961;56;21038;-76
2022/08/14 07:31:39;;;;;;;6.32;2.87;;;;;;;;;;2394511;56;21480;-76
2022/08/14 07:34:06;;;;;;;7.62;2.92;;;;;;;;;;2393690;56;21131;-78
2022/08/14 07:36:34;;;;;;;4.50;2.80;;;;;;;;;;2394833;56;21081;-76
2022/08/14 07:39:02;;;;;;;3.92;2.72;;;;;;;;;;2395227;56;21031;-77
2022/08/14 07:41:29;;;;;;;6.28;2.58;;;;;;;;;;2654331;52;21038;-76
2022/08/14 07:43:56;;;;;;;2.97;2.70;;;;;;;;;;2395305;56;21525;-76
2022/08/14 07:46:23;;;;;;;6.55;2.72;;;;;;;;;;2394662;56;21122;-77
2022/08/14 07:48:50;;;;;;;4.65;2.90;;;;;;;;;;2393099;56;21138;-82
2022/08/14 07:51:19;;;;;;;3.05;2.35;;;;;;;;;;2393998;56;21038;-77
2022/08/14 07:53:46;;;;;;;5.25;2.83;;;;;;;;;;2395474;56;21595;-78
2022/08/14 07:56:13;;;;;;;3.97;2.75;;;;;;;;;;2653140;52;21113;-79
2022/08/14 07:58:41;;;;;;;4.87;2.72;;;;;;;;;;2395638;56;21125;-78
2022/08/14 08:01:08;;;;;;;3.20;2.80;;;;;;;;;;2652961;52;21600;-78
2022/08/14 08:03:37;;;;;;;10.05;3.62;;;;;;;;;;2395580;56;21036;-77
2022/08/14 08:06:04;;;;;;;4.55;2.17;;;;;;;;;;2652203;52;21034;-78
2022/08/14 08:08:32;;;;;;;3.12;2.28;;;;;;;;;;2395495;56;21122;-77
2022/08/14 08:11:01;;;;;;;4.78;2.30;;;;;;;;;;2394951;56;21666;-79
2022/08/14 08:13:30;;;;;;;4.55;2.75;;;;;;;;;;2653827;52;21046;-76
2022/08/14 08:15:57;;;;;;;5.43;2.65;;;;;;;;;;2394554;56;21093;-77
2022/08/14 08:18:25;;;;;;;5.28;3.22;;;;;;;;;;2395401;56;22147;-78
2022/08/14 08:20:53;;;;;;;3.58;3.22;;;;;;;;;;2653889;52;21015;-77
2022/08/14 08:23:21;;;;;;;3.53;2.92;;;;;;;;;;2395254;56;21057;-77
2022/08/14 08:25:49;;;;;;;4.07;2.92;;;;;;;;;;2394881;56;21091;-77
2022/08/14 08:28:18;;;;;;;5.07;3.05;;;;;;;;;;2396625;56;21034;-76
2022/08/14 08:30:49;;;;;;;7.07;3.00;;;;;;;;;;2654775;52;21529;-77
2022/08/14 08:33:16;;;;;;;6.05;3.00;;;;;;;;;;2395890;56;21054;-77
2022/08/14 08:35:44;;;;;;;6.28;3.12;;;;;;;;;;2395747;56;21031;-77
2022/08/14 08:38:12;;;;;;;3.37;2.72;;;;;;;;;;2653754;52;21097;-77
2022/08/14 08:40:41;;;;;;;9.25;2.95;;;;;;;;;;2652883;52;21054;-77
2022/08/14 08:43:09;;;;;;;4.55;3.03;;;;;;;;;;2652922;52;21099;-77
2022/08/14 08:45:36;;;;;;;4.93;3.10;;;;;;;;;;2392834;56;21042;-80
2022/08/14 08:48:04;;;;;;;5.30;2.90;;;;;;;;;;2394587;56;21656;-82
2022/08/14 08:50:32;;;;;;;4.90;2.95;;;;;;;;;;2394275;56;21113;-79
2022/08/14 08:53:00;;;;;;;3.35;3.00;;;;;;;;;;2394301;56;21113;-79
2022/08/14 08:55:28;;;;;;;6.45;3.33;;;;;;;;;;2378591;56;21058;-79
2022/08/14 08:57:57;;;;;;;4.32;3.20;;;;;;;;;;2379502;56;21114;-79
2022/08/14 09:00:24;;;;;;;4.15;3.22;;;;;;;;;;2379606;56;21070;-82
2022/08/14 09:02:56;;;;;;;7.95;3.87;;;;;;;;;;2380737;56;21098;-82
2022/08/14 09:05:23;;;;;;;6.37;3.53;;;;;;;;;;2633351;52;21359;-81
2022/08/14 09:07:51;;;;;;;4.05;3.65;;;;;;;;;;2380597;56;21070;-81
2022/08/14 09:10:18;;;;;;;3.85;3.55;;;;;;;;;;2632636;52;21596;-80
2022/08/14 09:12:46;;;;;;;4.40;3.40;;;;;;;;;;2380117;56;21034;-81
2022/08/14 09:15:14;;;;;;;3.42;3.12;;;;;;;;;;2634434;52;21058;-82
2022/08/14 09:17:43;;;;;;;4.25;3.35;;;;;;;;;;2380555;56;21054;-79
2022/08/14 09:20:11;;;;;;;3.90;3.30;;;;;;;;;;2634122;52;21078;-78
2022/08/14 09:22:38;;;;;;;4.53;3.28;;;;;;;;;;2380303;56;21087;-78
2022/08/14 09:25:06;;;;;;;4.47;4.07;;;;;;;;;;2379752;56;21034;-78
2022/08/14 09:27:33;;;;;;;3.28;2.87;;;;;;;;;;2379761;56;21043;-77
2022/08/14 09:30:00;;;;;;;5.95;3.85;;;;;;;;;;2380001;56;21102;-77
2022/08/14 09:32:32;;;;;;;8.45;4.07;;;;;;;;;;2379620;56;21094;-78
2022/08/14 09:35:03;;;;;;;5.15;3.22;;;;;;;;;;2379894;56;21137;-81
2022/08/14 09:37:44;;;;;;;6.68;3.58;;;;;;;;;;2380082;56;21035;-77
2022/08/14 09:40:18;;;;;;;7.32;3.67;;;;;;;;;;2633675;52;21126;-81
2022/08/14 09:42:50;;;;;;;5.60;3.78;;;;;;;;;;2378332;56;21042;-78
2022/08/14 09:45:18;;;;;;;4.45;3.50;;;;;;;;;;2380260;56;21114;-78
2022/08/14 09:47:46;;;;;;;4.68;3.70;;;;;;;;;;2380245;56;21107;-77
2022/08/14 09:50:21;;;;;;;5.90;3.47;;;;;;;;;;2634386;52;21038;-78
2022/08/14 09:52:52;;;;;;;5.75;3.45;;;;;;;;;;2380001;56;21026;-77
2022/08/14 09:55:20;;;;;;;7.25;3.75;;;;;;;;;;2379551;56;21584;-77
2022/08/14 09:57:49;;;;;;;8.40;3.10;;;;;;;;;;2380310;56;21536;-77
2022/08/14 10:00:18;;;;;;;3.40;3.08;;;;;;;;;;2380193;56;21034;-77
2022/08/14 10:02:53;;;;;;;5.00;3.60;;;;;;;;;;2380331;56;21046;-78
2022/08/14 10:05:28;;;;;;;7.97;3.60;;;;;;;;;;2379538;56;21612;-80
2022/08/14 10:07:55;;;;;;;10.88;3.87;;;;;;;;;;2381350;56;21058;-78
2022/08/14 10:10:30;;;;;;;7.53;3.45;;;;;;;;;;2637013;52;21082;-80
2022/08/14 10:12:59;;;;;;;5.45;3.35;;;;;;;;;;2381639;56;21098;-81
2022/08/14 10:15:28;;;;;;;6.80;3.80;;;;;;;;;;2634279;52;21051;-80
2022/08/14 10:18:06;;;;;;;3.70;3.10;;;;;;;;;;2635873;52;21019;-80
2022/08/14 10:20:35;;;;;;;5.50;3.50;;;;;;;;;;2636584;52;21099;-80
2022/08/14 10:23:09;;;;;;;5.43;3.53;;;;;;;;;;2635515;52;21654;-80
2022/08/14 10:25:40;;;;;;;7.78;3.65;;;;;;;;;;2381071;56;21611;-81
2022/08/14 10:28:07;;;;;;;9.85;3.55;;;;;;;;;;2381209;56;21525;-80
2022/08/14 10:30:36;;;;;;;6.70;3.37;;;;;;;;;;2381189;56;21070;-80
2022/08/14 10:33:03;;;;;;;6.40;3.30;;;;;;;;;;2635896;52;21079;-80
2022/08/14 10:35:40;;;;;;;5.15;3.33;;;;;;;;;;2380525;56;21161;-80
2022/08/14 10:38:07;;;;;;;4.15;3.37;;;;;;;;;;2380784;56;21063;-81
2022/08/14 10:40:34;;;;;;;5.47;3.22;;;;;;;;;;2381409;56;21042;-80
2022/08/14 10:43:02;;;;;;;4.82;3.22;;;;;;;;;;2634006;52;21023;-80
2022/08/14 10:45:32;;;;;;;4.30;3.35;;;;;;;;;;2379558;56;21058;-80
2022/08/14 10:48:00;;;;;;;4.15;3.12;;;;;;;;;;2380936;56;21331;-79
2022/08/14 10:50:30;;;;;;;3.65;3.28;;;;;;;;;;2380331;56;21038;-78
2022/08/14 10:52:58;;;;;;;5.50;3.60;;;;;;;;;;2379621;56;21035;-80
2022/08/14 10:55:31;;;;;;;6.90;3.53;;;;;;;;;;2634911;52;21122;-81
2022/08/14 10:57:58;;;;;;;4.37;3.40;;;;;;;;;;2378676;56;21901;-81
2022/08/14 11:00:27;;;;;;;9.15;3.65;;;;;;;;;;2381033;56;21608;-81
2022/08/14 11:02:58;;;;;;;6.80;3.75;;;;;;;;;;2380813;56;21023;-81
2022/08/14 11:05:26;;;;;;;5.97;3.40;;;;;;;;;;2380918;56;21050;-81
2022/08/14 11:07:57;;;;;;;4.53;3.28;;;;;;;;;;2381076;56;22130;-81
2022/08/14 11:10:25;;;;;;;8.23;3.70;;;;;;;;;;2635101;52;21045;-81
2022/08/14 11:12:54;;;;;;;4.30;2.87;;;;;;;;;;2380235;56;21106;-81
2022/08/14 11:15:23;;;;;;;4.93;3.28;;;;;;;;;;2380074;56;21122;-81
2022/08/14 11:17:50;;;;;;;5.12;3.53;;;;;;;;;;2380799;56;21046;-80
2022/08/14 11:20:19;;;;;;;4.30;3.33;;;;;;;;;;2381191;56;21089;-80
2022/08/14 11:22:47;;;;;;;7.90;3.80;;;;;;;;;;2381038;56;21589;-80
2022/08/14 11:25:15;;;;;;;4.93;3.30;;;;;;;;;;2635038;52;21351;-80
2022/08/14 11:27:43;;;;;;;4.60;3.87;;;;;;;;;;2381107;56;21125;-81
2022/08/14 11:30:12;;;;;;;5.72;3.97;;;;;;;;;;2633235;52;21365;-81
2022/08/14 11:32:41;;;;;;;8.57;3.87;;;;;;;;;;2380676;56;21047;-81
2022/08/14 11:35:12;;;;;;;7.18;3.65;;;;;;;;;;2381475;56;21074;-81
2022/08/14 11:37:50;;;;;;;5.05;3.83;;;;;;;;;;2380407;56;21117;-81
2022/08/14 11:40:17;;;;;;;5.37;3.65;;;;;;;;;;2381679;56;21050;-81
2022/08/14 11:42:46;;;;;;;8.23;3.75;;;;;;;;;;2636334;52;21046;-82
2022/08/14 11:45:13;;;;;;;4.28;3.87;;;;;;;;;;2381561;56;21039;-81
2022/08/14 11:47:40;;;;;;;5.25;3.58;;;;;;;;;;2380075;56;21134;-81
2022/08/14 11:50:12;;;;;;;4.53;4.05;;;;;;;;;;2380617;56;21090;-81
2022/08/14 11:52:39;;;;;;;5.70;3.90;;;;;;;;;;2623417;52;70125;-78
2022/08/14 11:55:10;;;;;;;6.43;4.40;;;;;;;;;;2596078;53;21352;-81
2022/08/14 11:57:37;;;;;;;5.37;3.72;;;;;;;;;;2595963;53;21125;-80
2022/08/14 12:00:07;;;;;;;4.90;3.53;;;;;;;;;;2596548;53;21597;-80
2022/08/14 12:02:34;;;;;;;5.87;3.83;;;;;;;;;;2347224;57;21141;-80
2022/08/14 12:05:01;;;;;;;6.62;3.90;;;;;;;;;;2596001;53;21333;-80
2022/08/14 12:07:28;;;;;;;5.22;3.97;;;;;;;;;;2596973;53;21087;-80
2022/08/14 12:09:57;;;;;;;5.82;4.12;;;;;;;;;;2596785;53;21133;-80
2022/08/14 12:12:25;;;;;;;7.50;4.90;;;;;;;;;;2348409;57;21129;-80
2022/08/14 12:14:55;;;;;;;4.90;4.18;;;;;;;;;;2347654;57;21425;-78
2022/08/14 12:17:23;;;;;;;7.15;4.35;;;;;;;;;;2348082;57;21128;-79
2022/08/14 12:19:52;;;;;;;6.30;3.97;;;;;;;;;;2595348;53;21065;-79
2022/08/14 12:22:19;;;;;;;5.20;3.92;;;;;;;;;;2597622;52;21069;-79
2022/08/14 12:24:49;;;;;;;4.62;4.05;;;;;;;;;;2348836;57;21037;-79
2022/08/14 12:27:16;;;;;;;5.78;4.10;;;;;;;;;;2595988;53;21061;-79
2022/08/14 12:29:53;;;;;;;7.37;4.50;;;;;;;;;;2349105;57;21053;-80
2022/08/14 12:32:20;;;;;;;4.95;4.50;;;;;;;;;;2596907;52;21062;-82
2022/08/14 12:34:53;;;;;;;6.65;4.15;;;;;;;;;;2349148;57;21065;-79
2022/08/14 12:37:28;;;;;;;8.75;3.87;;;;;;;;;;2595697;53;21065;-80
2022/08/14 12:39:55;;;;;;;4.32;3.92;;;;;;;;;;2348053;57;21348;-79
2022/08/14 12:42:33;;;;;;;6.35;3.80;;;;;;;;;;2596290;52;21113;-80
2022/08/14 12:45:00;;;;;;;7.07;4.10;;;;;;;;;;2597869;53;21620;-80
2022/08/14 12:47:30;;;;;;;6.95;3.80;;;;;;;;;;2597750;53;21605;-80
2022/08/14 12:49:57;;;;;;;10.73;4.15;;;;;;;;;;2597607;53;21546;-80
2022/08/14 12:52:29;;;;;;;7.18;3.83;;;;;;;;;;2597125;52;21073;-79
2022/08/14 12:54:57;;;;;;;4.80;3.67;;;;;;;;;;2595429;53;21129;-80
2022/08/14 12:57:33;;;;;;;8.57;3.95;;;;;;;;;;2348112;57;21878;-85
2022/08/14 13:00:06;;;;;;;7.97;3.53;;;;;;;;;;2597473;53;21998;-85
2022/08/14 13:02:36;;;;;;;6.80;3.55;;;;;;;;;;2596954;52;21085;-85
2022/08/14 13:05:04;;;;;;;4.90;3.30;;;;;;;;;;2349845;57;21070;-85
2022/08/14 13:07:31;;;;;;;4.87;3.50;;;;;;;;;;2349057;57;21136;-87
2022/08/14 13:09:58;;;;;;;5.70;3.45;;;;;;;;;;2596695;53;21125;-87
2022/08/14 13:12:27;;;;;;;4.75;4.03;;;;;;;;;;2349600;57;21069;-86
2022/08/14 13:14:59;;;;;;;10.23;4.35;;;;;;;;;;2349543;57;21074;-86
2022/08/14 13:17:27;;;;;;;4.03;3.28;;;;;;;;;;2596232;53;22121;-86
2022/08/14 13:19:56;;;;;;;7.03;4.20;;;;;;;;;;2596843;53;21139;-85
2022/08/14 13:22:26;;;;;;;6.93;3.87;;;;;;;;;;2349906;57;21841;-86
2022/08/14 13:24:53;;;;;;;6.05;3.92;;;;;;;;;;2349589;57;21352;-86
2022/08/14 13:27:22;;;;;;;5.75;3.35;;;;;;;;;;2597247;53;21137;-86
2022/08/14 13:29:51;;;;;;;6.22;4.45;;;;;;;;;;2349527;57;21057;-85
2022/08/14 13:32:18;;;;;;;11.38;4.40;;;;;;;;;;2595461;52;21054;-85
2022/08/14 13:34:47;;;;;;;8.38;4.22;;;;;;;;;;2348992;57;21170;-85
2022/08/14 13:37:15;;;;;;;7.55;4.15;;;;;;;;;;2597807;53;21873;-86
2022/08/14 13:39:46;;;;;;;7.32;4.30;;;;;;;;;;2349683;57;21064;-85
2022/08/14 13:42:13;;;;;;;7.72;4.60;;;;;;;;;;2350330;57;21566;-84
2022/08/14 13:44:40;;;;;;;6.97;4.18;;;;;;;;;;2349453;57;21069;-85
2022/08/14 13:47:08;;;;;;;6.18;4.03;;;;;;;;;;2349200;57;21057;-86
2022/08/14 13:49:36;;;;;;;8.95;4.90;;;;;;;;;;2350238;57;21125;-85
2022/08/14 13:52:04;;;;;;;9.23;3.92;;;;;;;;;;2596883;53;21566;-84
2022/08/14 13:54:33;;;;;;;12.37;4.87;;;;;;;;;;2598037;52;21153;-85
2022/08/14 13:57:02;;;;;;;8.95;4.25;;;;;;;;;;2349579;57;21077;-85
2022/08/14 13:59:31;;;;;;;8.07;4.55;;;;;;;;;;2350050;57;21078;-85
2022/08/14 14:02:02;;;;;;;8.68;4.07;;;;;;;;;;2349215;57;21669;-85
2022/08/14 14:04:30;;;;;;;8.68;5.12;;;;;;;;;;2349734;57;21045;-85
2022/08/14 14:07:00;;;;;;;6.22;4.40;;;;;;;;;;2595895;53;21066;-86
2022/08/14 14:09:29;;;;;;;6.82;4.37;;;;;;;;;;2597225;53;21049;-81
2022/08/14 14:11:58;;;;;;;6.97;4.50;;;;;;;;;;2596449;53;21140;-78
2022/08/14 14:14:25;;;;;;;6.05;4.75;;;;;;;;;;2597891;52;21050;-80
2022/08/14 14:16:52;;;;;;;8.00;4.37;;;;;;;;;;2597589;53;21137;-80
2022/08/14 14:19:20;;;;;;;5.47;4.55;;;;;;;;;;2598372;53;21065;-80
2022/08/14 14:21:49;;;;;;;17.25;4.62;;;;;;;;;;2598055;53;21049;-82
2022/08/14 14:24:21;;;;;;;7.85;4.05;;;;;;;;;;2596638;52;21121;-89
2022/08/14 14:26:49;;;;;;;12.70;4.40;;;;;;;;;;2598283;53;21117;-88
2022/08/14 14:29:18;;;;;;;4.15;3.60;;;;;;;;;;2598848;53;21189;-88
2022/08/14 14:31:47;;;;;;;7.03;3.65;;;;;;;;;;2599143;53;21074;-84
2022/08/14 14:34:17;;;;;;;5.53;3.53;;;;;;;;;;2597452;52;21061;-82
2022/08/14 14:36:44;;;;;;;5.03;3.70;;;;;;;;;;2596188;53;21124;-85
2022/08/14 14:39:13;;;;;;;6.45;3.70;;;;;;;;;;2597361;53;21057;-83
2022/08/14 14:41:40;;;;;;;6.68;3.47;;;;;;;;;;2597391;53;21050;-85
2022/08/14 14:44:11;;;;;;;4.70;3.20;;;;;;;;;;2596923;52;21065;-84
2022/08/14 14:46:40;;;;;;;5.07;3.70;;;;;;;;;;2595194;53;21109;-84
2022/08/14 14:49:12;;;;;;;7.55;3.67;;;;;;;;;;2597121;53;21054;-84
2022/08/14 14:51:40;;;;;;;5.40;3.28;;;;;;;;;;2597219;53;21937;-84
2022/08/14 14:54:08;;;;;;;9.80;3.78;;;;;;;;;;2595991;52;21058;-85
2022/08/14 14:56:35;;;;;;;6.55;3.28;;;;;;;;;;2596505;53;21064;-83
2022/08/14 14:59:02;;;;;;;6.53;3.62;;;;;;;;;;2597395;53;21188;-82
2022/08/14 15:01:30;;;;;;;9.10;3.70;;;;;;;;;;2597938;53;21137;-84
2022/08/14 15:03:58;;;;;;;3.60;3.12;;;;;;;;;;2597857;52;21445;-85
2022/08/14 15:06:26;;;;;;;4.60;2.97;;;;;;;;;;2598727;53;21613;-83
2022/08/14 15:08:54;;;;;;;3.42;2.92;;;;;;;;;;2600611;53;21267;-83